Date,TemperatureHighF,TemperatureAvgF,TemperatureLowF,DewpointHighF,DewpointAvgF,DewpointLowF,HumidityHigh,HumidityAvg,HumidityLow,PressureMaxIn,PressureMinIn,WindSpeedMaxMPH,WindSpeedAvgMPH,GustSpeedMaxMPH,PrecipitationSumIn
2013-1-1,28.6,20.2,11.3,5.6,2.6,-4.1,61,46,36,30.17,30.03,8,2,8,0.00
2013-1-2,17.8,10.2,5.4,-0.3,-6.1,-10.1,48,47,44,30.23,30.14,8,2,8,0.00
2013-1-3,18.0,10.6,5.9,-0.4,-5.7,-10.4,50,47,43,30.17,30.03,5,1,5,0.00
2013-1-4,34.3,23.1,10.8,12.4,2.5,-4.2,50,41,27,30.11,30.03,8,2,8,0.00
2013-1-5,32.5,24.9,18.7,11.1,6.4,2.9,57,45,35,30.17,29.97,7,2,7,0.00
2013-1-6,35.8,27.9,19.8,13.6,8.2,4.5,55,43,32,29.97,29.82,9,2,9,0.00
2013-1-7,39.4,35.3,29.7,16.4,10.6,5.8,42,36,31,29.88,29.64,16,5,16,0.00
2013-1-8,41.5,36.3,30.7,17.2,11.1,6.7,43,35,29,29.94,29.70,15,4,15,0.00
2013-1-9,46.8,42.4,36.5,17.1,13.2,9.6,37,30,27,29.91,29.58,18,5,18,0.00
2013-1-10,42.8,24.1,6.4,13.4,6.5,-1.2,70,52,28,29.70,29.55,11,3,11,0.00
2013-1-11,7.0,4.3,2.1,-0.7,-3.3,-5.4,70,70,70,29.94,29.70,8,2,8,0.00
2013-1-12,9.9,1.6,-5.3,2.0,-5.9,-12.5,70,70,70,30.00,29.88,9,2,9,0.00
2013-1-13,10.4,4.1,-2.7,2.6,-3.5,-10.1,70,70,70,30.03,29.97,6,1,6,0.00
2013-1-14,21.0,11.1,0.0,5.9,-0.4,-7.7,70,60,44,30.03,29.91,9,3,9,0.00
2013-1-15,33.6,26.4,20.7,13.5,9.3,4.7,61,48,41,30.17,30.03,11,3,11,0.00
2013-1-16,42.4,35.7,27.9,12.1,8.5,4.3,42,32,26,30.26,30.11,14,3,14,0.00
2013-1-17,41.0,31.4,22.8,10.2,6.4,3.3,44,35,21,30.26,30.03,12,2,12,0.04
2013-1-18,50.9,41.9,32.9,8.9,0.7,-4.4,30,18,14,30.03,29.88,13,4,13,0.08
2013-1-19,45.1,39.8,33.6,1.2,-2.5,-6.4,20,16,15,30.09,30.00,9,2,12,0.04
2013-1-20,39.0,23.6,19.8,10.6,7.2,-4.2,61,51,16,30.20,30.06,10,2,10,0.00
2013-1-21,46.8,35.5,22.8,10.4,2.8,-4.7,57,27,14,30.09,29.97,6,2,6,0.00
2013-1-22,38.3,29.9,24.1,7.4,-1.0,-9.4,40,26,17,30.06,30.00,6,2,6,0.00
2013-1-23,48.6,33.4,26.1,11.0,5.2,2.5,37,31,17,30.00,29.85,13,2,13,0.00
2013-1-24,46.2,39.9,31.3,18.5,11.8,-0.5,44,32,15,30.03,29.85,14,4,14,0.00
2013-1-25,46.0,39.6,30.9,24.7,14.7,10.5,59,36,29,30.06,29.88,13,5,13,0.00
2013-1-26,49.8,39.2,30.4,28.1,20.4,16.0,86,50,27,29.88,29.70,11,4,11,0.00
2013-1-27,32.9,27.6,20.3,27.1,9.8,1.2,86,48,32,29.82,29.76,9,2,9,0.00
2013-1-28,32.0,25.9,21.7,5.2,3.1,0.9,43,37,31,29.79,29.64,10,4,11,0.00
2013-1-29,24.6,14.3,5.4,9.1,-2.4,-11.5,60,47,42,30.00,29.61,11,3,11,0.00
2013-1-30,36.9,31.6,11.1,16.8,13.3,-6.1,63,46,40,29.97,29.79,11,3,13,0.00
2013-1-31,40.1,37.4,34.9,18.7,15.7,14.1,47,41,38,30.03,29.94,10,4,15,0.00
2013-2-1,42.4,36.2,31.6,22.7,14.1,8.4,63,41,30,30.17,29.97,10,4,10,0.00
2013-2-2,43.0,35.1,28.2,13.6,10.6,7.0,43,36,29,30.26,30.11,9,3,10,0.00
2013-2-3,43.3,34.7,23.9,12.4,8.4,3.3,45,33,23,30.11,29.91,10,2,10,0.00
2013-2-4,41.2,38.2,34.9,17.0,11.5,5.8,39,33,26,29.91,29.85,14,4,14,0.00
2013-2-5,45.9,35.9,30.2,20.2,15.2,12.4,55,42,30,29.91,29.73,11,2,11,0.00
2013-2-6,39.7,33.8,28.8,21.1,10.3,4.9,58,37,28,30.00,29.76,11,3,11,0.00
2013-2-7,39.7,30.2,21.6,10.2,6.9,3.0,45,37,29,29.97,29.82,8,2,8,0.00
2013-2-8,37.0,28.9,21.9,13.0,8.4,5.2,49,42,32,29.85,29.79,8,3,8,0.00
2013-2-9,35.4,27.1,19.8,23.5,10.1,3.3,88,51,27,29.88,29.70,11,3,11,0.00
2013-2-10,26.6,21.2,11.1,16.2,7.0,-2.0,73,54,41,30.03,29.88,13,4,13,0.00
2013-2-11,30.4,21.1,9.7,9.8,5.0,-3.2,68,50,39,30.00,29.88,8,2,8,0.00
2013-2-12,38.3,33.3,23.7,15.5,12.1,6.9,57,41,34,30.03,29.94,11,3,11,0.04
2013-2-13,41.7,37.1,31.6,14.9,12.2,8.7,41,36,29,30.06,29.88,17,5,17,0.00
2013-2-14,32.9,26.1,18.7,16.8,13.0,9.7,79,59,41,30.23,30.06,11,2,11,0.00
2013-2-15,42.8,33.4,23.4,16.1,11.6,6.0,53,40,31,30.26,30.14,9,2,9,0.04
2013-2-16,45.9,31.9,26.1,18.0,14.4,10.7,62,49,28,30.14,29.73,8,2,15,0.00
2013-2-17,34.5,28.7,26.1,23.9,13.9,8.2,78,55,35,29.94,29.73,9,2,11,0.00
2013-2-18,34.9,25.7,18.3,19.1,9.2,-1.8,79,53,31,29.97,29.79,8,2,8,0.04
2013-2-19,36.7,27.2,21.7,8.9,3.9,-1.6,50,37,30,29.79,29.64,8,2,8,0.00
2013-2-20,32.7,25.3,17.1,17.8,11.0,1.9,74,55,38,29.82,29.70,7,2,7,0.00
2013-2-21,32.2,24.3,13.3,6.3,0.7,-3.3,48,36,25,29.85,29.82,11,4,12,0.00
2013-2-22,40.5,32.4,24.4,9.0,6.0,2.3,42,33,23,29.85,29.61,15,5,15,0.00
2013-2-23,35.8,30.4,25.2,19.5,6.2,-0.4,67,36,25,29.94,29.58,15,4,15,0.00
2013-2-24,35.4,28.0,17.8,6.4,3.1,-0.9,44,34,27,30.00,29.91,11,4,11,0.00
2013-2-25,37.4,30.3,22.5,17.8,5.8,-0.7,58,35,27,29.94,29.76,11,4,11,0.00
2013-2-26,34.5,29.0,25.3,8.3,4.7,0.4,42,35,30,30.11,29.88,10,3,10,0.00
2013-2-27,38.8,27.5,17.4,8.4,3.7,-0.8,49,36,24,30.11,30.06,9,3,9,0.00
2013-2-28,42.3,33.9,24.4,23.3,9.0,2.5,64,35,29,30.20,30.06,11,2,11,0.00
2013-3-1,53.6,43.4,34.7,21.6,18.8,16.4,51,38,26,30.23,30.17,11,3,11,0.00
2013-3-2,53.6,43.9,32.4,20.0,17.1,14.3,53,34,25,30.20,29.85,11,4,11,0.00
2013-3-3,45.3,33.3,20.3,24.9,11.3,-6.4,77,42,17,29.97,29.67,16,5,16,0.00
2013-3-4,24.3,18.5,10.2,10.2,2.4,-6.4,70,50,34,30.11,29.97,11,3,11,0.00
2013-3-5,35.4,21.3,7.9,9.1,1.2,-8.6,49,41,31,30.06,29.85,8,2,8,0.00
2013-3-6,38.3,30.0,21.9,28.6,14.6,7.1,86,54,36,29.88,29.58,9,2,9,0.00
2013-3-7,44.1,35.3,28.2,18.0,8.9,2.3,50,34,20,29.94,29.70,12,4,12,0.00
2013-3-8,42.3,32.0,22.6,11.0,4.6,-4.4,45,32,18,29.94,29.79,8,3,9,0.00
2013-3-9,42.3,33.8,24.8,11.5,7.7,-1.5,43,33,26,30.17,29.91,10,3,10,0.00
2013-3-10,46.2,36.9,26.4,18.6,6.1,-1.6,50,29,15,30.17,30.00,9,3,10,0.00
2013-3-11,37.2,32.1,21.9,18.3,12.2,7.4,61,44,31,30.14,29.94,11,3,11,0.00
2013-3-12,45.5,30.6,19.2,17.4,12.7,9.0,69,49,30,30.14,29.94,10,2,10,0.00
2013-3-13,57.2,48.5,42.3,21.0,15.6,9.8,36,27,15,30.09,30.00,13,4,13,0.00
2013-3-14,62.6,52.5,42.6,17.9,13.0,3.5,34,21,12,30.09,29.91,13,5,13,0.00
2013-3-15,53.6,47.0,39.9,17.9,11.4,2.5,33,24,13,30.00,29.91,14,3,14,0.00
2013-3-16,49.3,41.7,34.9,17.0,11.4,2.5,40,30,16,29.97,29.55,8,2,8,0.00
2013-3-17,35.8,29.4,15.8,26.2,8.7,-1.0,79,43,25,29.76,29.47,16,4,16,0.00
2013-3-18,37.9,28.0,16.5,18.9,4.2,-5.9,74,38,17,29.91,29.73,15,4,15,0.00
2013-3-19,40.6,30.3,23.9,9.3,0.4,-10.0,53,30,13,30.09,29.91,9,3,10,0.00
2013-3-20,55.4,41.1,27.9,25.1,7.4,-7.4,60,26,15,29.97,29.52,16,5,16,0.00
2013-3-21,37.9,31.8,24.6,14.1,2.4,-6.4,43,29,16,29.85,29.64,13,4,13,0.00
2013-3-22,28.0,22.9,17.4,10.1,2.1,-1.1,57,40,32,30.00,29.79,10,3,10,0.00
2013-3-23,30.2,18.9,8.4,9.0,-2.1,-9.3,62,41,20,30.03,30.00,8,3,9,0.00
2013-3-24,33.3,21.3,10.4,5.0,-2.3,-14.1,59,39,15,30.09,30.03,10,4,10,0.00
2013-3-25,43.2,28.6,13.8,3.7,-4.0,-7.5,40,26,13,30.06,29.91,9,3,10,0.00
2013-3-26,49.6,37.5,28.9,10.0,2.7,-3.3,32,24,14,29.91,29.85,9,2,9,0.00
2013-3-27,54.3,41.5,27.5,15.9,10.4,5.0,44,29,15,29.97,29.88,10,3,10,0.00
2013-3-28,56.8,44.0,31.6,25.1,19.9,14.0,68,40,20,30.03,29.94,10,3,10,0.00
2013-3-29,53.2,43.8,35.8,24.5,21.1,15.9,57,41,27,30.11,30.00,9,3,9,0.00
2013-3-30,55.6,45.3,36.9,21.1,14.7,4.1,47,31,15,30.11,30.03,10,3,10,0.00
2013-3-31,54.0,44.1,34.2,19.4,12.5,8.5,42,29,18,30.06,30.00,11,3,11,0.00
2013-4-1,58.6,42.9,28.8,19.3,11.8,0.8,54,32,12,30.00,29.91,10,3,10,0.00
2013-4-2,64.8,46.6,31.1,19.4,13.3,6.7,44,28,10,29.97,29.88,9,3,9,0.00
2013-4-3,58.1,50.0,42.1,22.5,19.0,13.2,39,29,17,30.00,29.94,10,3,10,0.00
2013-4-4,62.2,49.2,37.4,32.2,20.5,14.4,54,33,16,30.00,29.76,16,3,16,0.00
2013-4-5,58.1,49.4,43.7,31.1,20.0,10.0,55,32,17,29.88,29.73,10,4,11,0.00
2013-4-6,54.1,43.0,35.8,37.2,22.1,15.2,78,45,27,29.88,29.79,13,4,13,0.16
2013-4-7,47.7,36.8,26.4,37.2,25.6,19.5,92,66,38,29.82,29.55,9,3,9,0.20
2013-4-8,26.4,21.5,14.2,23.4,9.4,3.1,88,60,43,30.14,29.79,10,4,10,0.00
2013-4-9,39.9,24.3,9.7,16.3,7.3,-0.2,68,50,28,30.17,30.09,10,2,10,0.28
2013-4-10,55.2,40.2,27.0,34.2,19.8,12.3,71,45,27,30.09,29.73,9,2,9,0.04
2013-4-11,50.4,42.2,34.0,23.0,13.3,2.5,49,32,16,29.97,29.82,14,4,14,0.00
2013-4-12,52.0,38.8,29.5,18.5,12.4,2.4,51,35,14,29.97,29.64,10,2,10,0.00
2013-4-13,48.7,37.7,28.0,24.8,9.6,-7.5,62,32,13,29.67,29.41,15,4,15,0.00
2013-4-14,32.7,26.7,19.4,19.8,11.8,6.5,80,54,39,29.88,29.67,10,3,11,0.12
2013-4-15,28.9,22.6,17.8,10.9,6.8,2.3,70,52,33,30.03,29.85,11,3,11,0.04
2013-4-16,30.4,22.5,16.3,13.4,7.4,2.5,72,53,32,30.14,30.00,11,3,11,0.00
2013-4-17,37.8,25.3,16.7,12.7,6.2,-2.8,76,48,19,30.14,30.09,11,2,11,0.00
2013-4-18,48.6,35.4,21.2,15.5,7.3,0.2,43,31,21,30.11,30.03,11,3,11,0.00
2013-4-19,51.3,41.3,33.3,23.9,17.0,9.5,50,37,29,30.09,29.82,10,3,11,0.00
2013-4-20,54.9,45.3,38.7,21.8,16.5,8.5,49,32,18,29.97,29.85,13,4,13,0.00
2013-4-21,40.6,26.1,19.6,22.3,15.8,10.6,83,66,31,30.11,29.97,9,3,10,0.00
2013-4-22,36.7,25.2,19.0,15.7,8.1,-4.7,79,52,22,30.23,30.11,10,2,10,0.31
2013-4-23,44.8,31.2,18.5,14.3,7.8,1.6,53,38,20,30.20,30.03,10,4,10,0.00
2013-4-24,56.7,41.4,26.8,16.3,9.3,-0.2,53,30,12,30.14,29.91,13,3,13,0.00
2013-4-25,61.7,51.1,40.6,12.4,5.1,-2.0,25,15,11,29.97,29.79,13,4,13,0.00
2013-4-26,68.2,56.2,42.3,17.9,10.6,4.2,29,17,10,30.11,29.97,11,4,12,0.00
2013-4-27,69.6,59.9,51.6,14.5,9.1,3.7,21,14,10,30.11,29.91,13,5,15,0.00
2013-4-28,61.0,50.7,39.9,26.6,15.9,2.5,47,27,11,29.94,29.82,12,3,12,0.00
2013-4-29,53.8,44.3,33.1,31.6,10.9,-1.0,69,27,15,29.82,29.52,17,5,19,0.04
2013-4-30,39.6,31.4,24.8,18.6,8.7,-3.9,62,39,20,30.11,29.76,12,3,12,0.00
2013-5-1,48.2,34.0,21.2,13.5,6.6,-2.6,66,35,14,30.44,30.11,11,3,11,0.00
2013-5-2,64.6,46.1,29.5,9.9,4.9,-4.9,36,21,10,30.44,30.17,10,3,10,0.00
2013-5-3,54.9,46.5,39.0,36.7,17.3,-1.6,89,38,14,30.20,30.09,10,3,10,0.20
2013-5-4,53.4,43.2,37.9,42.0,35.4,25.6,92,76,36,30.14,30.06,8,1,9,0.24
2013-5-5,64.2,49.0,33.3,34.0,23.9,8.4,89,45,13,30.11,29.97,9,2,9,0.24
2013-5-6,71.2,53.9,38.3,28.4,18.2,3.0,56,29,9,30.00,29.85,9,3,11,0.24
2013-5-7,66.9,55.7,43.0,25.3,19.0,8.0,40,25,15,30.06,29.88,15,4,15,0.00
2013-5-8,73.6,56.7,39.7,27.2,20.2,8.2,52,28,8,30.06,30.00,8,3,8,0.00
2013-5-9,71.6,59.0,45.0,28.6,21.1,11.5,44,25,12,30.09,30.03,13,3,13,0.00
2013-5-10,64.4,53.6,44.6,28.4,22.5,14.0,51,31,15,30.29,30.09,16,4,16,0.00
2013-5-11,74.7,57.4,40.1,27.0,21.2,13.2,49,28,11,30.32,30.09,9,3,9,0.00
2013-5-12,81.7,67.8,50.5,30.7,20.7,8.7,38,19,7,30.11,30.00,9,3,9,0.00
2013-5-13,83.5,66.1,52.5,34.8,27.8,8.8,40,26,6,30.06,29.79,18,3,18,0.00
2013-5-14,69.6,56.4,38.3,28.3,14.9,2.5,53,22,10,30.00,29.91,13,4,14,0.00
2013-5-15,69.6,55.5,42.8,28.3,13.8,5.8,44,21,10,30.03,29.88,9,2,9,0.00
2013-5-16,63.1,52.7,42.6,35.2,29.0,23.4,63,41,24,29.94,29.82,9,2,9,0.00
2013-5-17,52.2,47.2,38.8,43.2,35.6,27.0,86,66,38,29.94,29.85,7,2,7,0.08
2013-5-18,60.6,50.6,46.0,47.9,38.3,26.8,94,67,29,30.00,29.91,10,1,11,0.04
2013-5-19,50.5,47.0,43.7,44.2,40.1,31.4,90,77,53,30.17,29.97,6,1,6,0.35
2013-5-20,62.4,50.2,43.5,45.3,39.8,28.0,95,72,28,30.20,30.14,8,1,8,0.31
2013-5-21,70.3,54.4,39.2,38.5,29.2,8.7,87,47,10,30.14,29.82,13,4,14,0.00
2013-5-22,62.2,52.7,43.0,43.5,29.1,20.6,82,41,27,29.82,29.73,14,3,14,0.28
2013-5-23,51.1,42.6,36.1,39.3,32.7,24.0,93,71,37,29.94,29.82,11,2,11,0.79
2013-5-24,62.2,49.2,38.1,36.8,22.0,8.6,89,41,14,30.00,29.85,19,5,19,0.04
2013-5-25,63.0,49.8,36.7,34.7,27.7,23.1,69,45,24,30.00,29.88,9,3,9,0.00
2013-5-26,66.9,51.2,39.6,42.1,31.0,24.0,90,50,24,29.97,29.85,10,3,10,0.16
2013-5-27,61.2,48.9,38.8,43.4,36.8,30.1,93,66,35,29.91,29.79,13,2,13,0.12
2013-5-28,55.9,49.5,45.7,45.7,38.8,29.8,91,69,42,29.82,29.73,9,1,10,0.31
2013-5-29,62.8,51.9,45.7,44.0,34.6,26.6,92,55,27,29.82,29.70,9,2,9,0.24
2013-5-30,56.1,49.3,44.1,37.7,25.4,19.7,73,40,28,30.00,29.79,13,4,13,0.00
2013-5-31,49.5,46.4,39.9,36.2,25.9,20.7,78,45,37,30.26,30.00,8,2,8,0.00
2013-6-1,65.7,51.2,35.8,35.8,28.5,18.5,82,47,18,30.26,30.03,8,3,8,0.00
2013-6-2,66.0,51.9,43.7,45.0,33.0,25.9,87,52,25,30.03,29.88,10,2,10,0.20
2013-6-3,57.9,45.4,41.7,42.9,37.1,28.1,91,75,35,30.14,29.85,11,2,11,0.51
2013-6-4,56.8,45.6,37.6,38.9,30.0,22.8,93,59,29,30.20,30.11,8,2,8,0.00
2013-6-5,73.4,54.6,36.0,32.9,27.5,18.2,74,39,14,30.20,30.03,10,3,10,0.00
2013-6-6,78.3,63.3,50.5,36.0,30.3,23.5,45,30,15,30.09,30.00,9,3,9,0.00
2013-6-7,77.5,63.8,52.5,38.5,32.0,20.6,47,32,13,30.03,29.85,11,3,15,0.00
2013-6-8,77.4,64.4,50.2,33.3,18.3,8.5,47,21,8,30.00,29.91,13,3,13,0.00
2013-6-9,83.1,65.4,48.9,31.6,18.3,3.7,37,19,6,30.00,29.79,13,3,13,0.00
2013-6-10,80.8,63.3,46.9,27.4,13.1,2.5,28,15,7,29.91,29.79,9,3,11,0.00
2013-6-11,64.8,56.6,50.7,53.2,38.1,26.3,91,53,28,30.03,29.85,10,2,10,0.16
2013-6-12,73.0,57.1,46.0,55.4,47.0,35.5,95,74,32,30.03,29.85,10,2,13,0.51
2013-6-13,57.0,51.8,46.0,53.9,41.2,26.2,94,70,38,30.03,29.88,8,1,10,0.51
2013-6-14,62.1,50.8,39.4,30.3,24.1,14.4,68,38,16,30.06,29.94,13,4,13,0.08
2013-6-15,73.9,58.3,40.1,28.6,18.4,6.0,48,24,8,30.06,29.94,10,4,10,0.00
2013-6-16,73.4,59.8,45.5,35.6,24.9,16.1,46,27,14,30.12,30.03,9,4,9,0.00
2013-6-17,76.6,60.3,47.7,51.3,37.0,20.3,74,45,13,30.12,29.91,12,3,12,0.24
2013-6-18,83.1,66.0,50.7,45.1,35.5,11.6,70,38,7,29.94,29.76,8,2,8,0.00
2013-6-19,69.3,55.9,46.8,43.3,39.4,28.5,82,55,35,29.85,29.67,15,4,15,0.08
2013-6-20,59.7,50.9,45.5,39.1,27.9,23.1,67,42,25,30.00,29.73,14,5,15,0.08
2013-6-21,63.3,51.3,40.8,42.5,30.5,24.0,75,47,25,30.03,29.97,13,3,13,0.04
2013-6-22,64.9,52.1,45.3,45.6,33.8,26.0,87,53,28,29.97,29.91,9,2,9,0.16
2013-6-23,73.6,57.3,41.7,36.4,31.5,25.7,67,40,19,29.94,29.76,8,3,9,0.00
2013-6-24,71.2,60.2,51.4,51.7,34.8,28.6,71,40,25,29.76,29.65,9,3,9,0.04
2013-6-25,75.0,61.3,50.2,49.2,35.1,15.0,83,42,11,29.94,29.76,14,3,14,0.00
2013-6-26,71.6,63.5,53.4,37.4,33.7,30.9,54,33,24,30.12,29.91,14,4,14,0.00
2013-6-27,85.3,69.0,52.9,40.9,35.0,22.0,58,32,11,30.27,30.12,10,3,10,0.04
2013-6-28,89.6,73.2,57.9,39.9,29.3,15.1,38,23,7,30.27,30.21,11,3,11,0.04
2013-6-29,85.8,71.0,57.7,45.8,40.5,27.0,63,35,14,30.27,30.12,10,2,10,0.04
2013-6-30,88.2,71.9,56.7,50.6,40.4,28.1,61,36,13,30.21,30.09,9,3,9,0.04
2013-7-1,90.9,74.9,60.4,48.2,39.5,17.5,64,34,7,30.21,30.15,8,3,8,0.00
2013-7-2,92.7,70.7,61.5,55.4,43.3,17.5,69,39,7,30.18,30.06,20,4,20,0.08
2013-7-3,91.2,79.5,67.3,41.8,30.5,14.6,39,19,7,30.12,30.00,10,3,11,0.00
2013-7-4,87.6,74.9,63.0,37.8,29.1,14.9,34,20,8,30.03,29.88,9,3,9,0.00
2013-7-5,78.8,67.8,57.0,40.7,26.9,14.9,51,24,10,29.91,29.85,12,3,12,0.00
2013-7-6,82.6,63.5,48.7,42.8,33.3,21.0,70,37,11,29.97,29.88,10,2,10,0.00
2013-7-7,85.8,67.1,51.6,45.0,35.9,16.6,67,37,8,29.97,29.88,10,3,10,0.00
2013-7-8,82.0,65.5,55.6,46.1,35.8,12.8,70,38,11,30.12,29.94,10,3,11,0.00
2013-7-9,86.2,68.3,50.5,35.5,22.9,8.6,47,23,6,30.15,30.09,9,3,9,0.00
2013-7-10,92.8,73.4,55.8,33.3,19.5,6.1,27,15,4,30.12,29.91,9,3,10,0.00
2013-7-11,85.1,72.7,58.1,38.3,17.8,8.6,46,14,6,30.00,29.85,17,4,17,0.00
2013-7-12,81.9,66.7,53.8,38.0,27.8,14.9,39,25,9,29.97,29.88,11,4,11,0.00
2013-7-13,78.6,66.4,51.8,32.7,22.7,8.6,46,22,8,30.15,29.94,13,4,13,0.00
2013-7-14,84.9,65.4,49.3,55.8,29.1,14.9,83,30,8,30.15,30.03,8,3,8,0.16
2013-7-15,92.8,71.7,56.8,36.4,20.7,6.1,40,17,4,30.15,29.94,13,4,13,0.00
2013-7-16,82.6,64.2,48.2,36.7,32.9,22.7,61,34,11,30.18,30.06,10,3,10,0.00
2013-7-17,85.5,66.1,56.8,60.2,50.6,35.8,91,62,21,30.18,30.06,16,2,16,0.75
2013-7-18,87.1,71.0,55.9,52.7,27.5,8.6,78,29,6,30.15,30.09,15,3,15,0.67
2013-7-19,87.6,72.2,58.8,32.9,18.5,6.8,30,16,6,30.09,30.03,13,4,14,0.00
2013-7-20,87.4,71.0,54.7,35.2,16.6,6.1,34,15,6,30.03,29.91,10,4,12,0.00
2013-7-21,90.3,75.8,57.4,17.1,10.2,6.0,16,8,5,29.94,29.91,9,3,9,0.00
2013-7-22,89.2,73.4,58.8,12.5,9.2,6.0,12,9,5,30.00,29.91,11,4,13,0.00
2013-7-23,88.5,73.1,60.6,24.4,11.0,6.1,20,10,5,30.09,30.00,10,3,10,0.00
2013-7-24,93.2,73.7,55.9,29.4,13.1,6.0,26,11,4,30.12,30.00,10,3,11,0.00
2013-7-25,86.9,70.8,54.5,41.0,30.7,15.6,57,28,8,30.15,30.06,9,3,9,0.00
2013-7-26,91.9,74.0,56.8,41.1,25.3,6.1,53,23,4,30.15,30.06,10,3,13,0.00
2013-7-27,87.6,75.4,60.6,24.9,10.4,6.0,20,9,6,30.09,29.88,10,3,10,0.00
2013-7-28,78.1,65.6,54.9,46.5,35.1,19.7,67,35,13,29.97,29.85,8,2,9,0.00
2013-7-29,72.9,60.5,51.8,42.4,35.8,30.6,66,42,23,30.03,29.88,10,2,11,0.00
2013-7-30,74.1,61.5,50.2,41.7,37.3,27.8,70,43,18,30.18,30.03,10,2,10,0.00
2013-7-31,85.8,67.7,50.5,44.1,28.2,8.8,61,29,6,30.18,30.06,11,3,11,0.04
2013-8-1,71.8,60.0,55.6,55.2,39.9,20.1,95,54,17,30.09,29.94,10,2,10,0.51
2013-8-2,70.3,58.6,48.6,56.6,42.7,29.6,97,61,24,30.06,29.91,11,2,11,0.71
2013-8-3,74.1,61.0,48.4,39.8,36.4,30.8,70,42,21,30.09,30.03,9,3,9,0.04
2013-8-4,80.2,65.8,52.0,42.1,29.1,13.2,59,31,10,30.09,30.03,11,4,11,0.04
2013-8-5,82.0,68.2,53.4,37.6,24.5,9.6,45,22,7,30.03,29.94,11,4,14,0.04
2013-8-6,80.2,66.0,52.0,41.5,30.3,14.9,67,32,10,30.03,30.00,10,3,10,0.00
2013-8-7,84.2,72.1,53.2,34.1,21.3,8.5,38,18,6,30.03,29.97,9,3,9,0.00
2013-8-8,80.1,65.5,52.7,40.2,34.7,22.0,55,34,12,30.12,30.00,8,3,8,0.00
2013-8-9,79.3,64.7,52.2,49.8,40.8,30.3,71,45,22,30.12,30.03,11,3,11,0.04
2013-8-10,79.0,65.1,51.6,48.5,34.6,10.8,70,37,10,30.09,30.03,13,3,13,0.00
2013-8-11,79.0,66.7,56.8,38.0,28.9,18.5,38,25,13,30.09,30.03,13,3,14,0.00
2013-8-12,81.1,67.6,53.6,35.3,26.2,14.4,38,24,9,30.12,30.06,13,3,13,0.00
2013-8-13,82.0,67.5,54.0,44.9,28.8,16.6,61,26,9,30.18,30.06,24,3,24,0.04
2013-8-14,84.0,73.0,55.9,39.5,14.1,6.7,54,13,6,30.12,30.03,8,3,9,0.00
2013-8-15,90.1,71.7,55.8,28.1,12.8,4.9,23,11,5,30.06,30.00,8,3,8,0.00
2013-8-16,91.9,74.4,59.2,27.2,12.9,6.1,22,10,4,30.03,29.97,10,3,10,0.00
2013-8-17,86.9,75.1,62.2,32.2,18.5,8.3,25,13,6,30.06,29.97,10,3,10,0.00
2013-8-18,88.9,75.2,61.3,32.5,20.7,8.5,30,15,5,30.06,30.00,10,3,11,0.00
2013-8-19,91.0,74.7,57.4,27.2,14.8,7.5,25,12,5,30.06,29.94,9,3,9,0.00
2013-8-20,89.1,72.0,56.5,27.2,13.9,6.0,25,12,5,30.03,29.94,11,3,11,0.00
2013-8-21,81.9,68.7,56.8,19.5,11.7,6.7,19,12,7,30.09,30.03,9,3,9,0.00
2013-8-22,82.8,69.5,54.0,30.6,20.0,9.2,28,16,9,30.09,29.94,15,4,15,0.00
2013-8-23,83.3,69.6,58.3,45.7,29.3,14.9,51,25,10,29.97,29.85,13,3,14,0.00
2013-8-24,80.2,68.2,57.4,40.7,29.6,14.4,44,26,10,30.00,29.88,14,3,15,0.00
2013-8-25,88.2,70.2,54.1,35.6,26.6,8.6,41,23,5,30.00,29.91,10,3,10,0.00
2013-8-26,83.7,68.9,57.2,46.8,29.3,14.9,46,25,9,30.00,29.94,17,4,20,0.00
2013-8-27,86.7,69.0,54.5,39.4,28.4,9.6,43,25,7,30.03,29.97,10,3,10,0.00
2013-8-28,85.3,66.7,57.2,54.8,35.1,22.7,79,33,11,30.06,29.94,12,3,12,0.12
2013-8-29,87.6,69.1,53.6,45.8,36.7,15.2,74,38,8,30.09,29.97,12,3,12,0.00
2013-8-30,85.5,69.2,54.3,41.5,29.9,8.8,55,28,6,30.12,30.00,11,3,12,0.00
2013-8-31,81.0,67.5,53.6,32.0,22.0,8.5,38,20,7,30.12,30.06,9,3,9,0.00
2013-9-1,89.1,69.5,49.6,27.8,17.7,8.5,36,17,5,30.09,29.97,8,3,9,0.00
2013-9-2,84.4,71.2,58.3,30.6,16.5,6.7,24,13,7,30.03,29.94,8,2,8,0.00
2013-9-3,84.7,69.8,59.4,47.1,28.4,16.6,51,24,8,30.18,30.00,13,4,13,0.00
2013-9-4,82.8,69.7,58.5,47.1,41.3,33.7,65,39,20,30.15,30.09,9,3,10,0.00
2013-9-5,84.7,68.4,56.8,54.1,39.9,31.8,73,38,16,30.12,30.03,17,3,17,0.00
2013-9-6,82.6,66.7,55.9,50.8,45.2,35.6,79,50,20,30.09,30.00,13,2,14,0.00
2013-9-7,75.7,63.8,55.6,56.9,49.8,42.1,91,63,31,30.09,30.00,10,2,11,0.24
2013-9-8,72.3,60.7,53.1,57.4,44.6,30.0,92,59,32,30.03,29.94,10,2,11,0.20
2013-9-9,70.5,61.5,54.5,36.8,32.5,29.5,42,34,23,30.06,29.94,9,3,9,0.00
2013-9-10,75.6,61.5,48.7,39.3,30.4,14.9,57,34,10,30.12,30.03,8,3,8,0.00
2013-9-11,78.4,64.4,52.0,35.1,27.1,16.0,45,26,10,30.21,30.12,10,3,11,0.00
2013-9-12,80.1,65.0,50.2,35.4,29.9,15.9,55,30,10,30.21,30.03,8,2,10,0.00
2013-9-13,81.5,67.4,54.9,36.9,29.4,15.9,46,27,10,30.03,29.88,9,2,9,0.00
2013-9-14,71.1,63.7,55.8,36.2,32.6,26.7,47,32,24,30.09,29.94,11,2,12,0.00
2013-9-15,77.9,63.6,49.8,36.9,34.5,28.8,59,36,18,30.09,29.94,11,2,11,0.00
2013-9-16,80.8,68.2,55.6,39.6,30.4,14.9,54,28,10,29.94,29.82,18,4,18,0.00
2013-9-17,61.7,54.7,48.7,52.4,38.4,26.6,90,57,27,29.88,29.67,9,3,9,0.28
2013-9-18,58.1,50.3,44.8,45.9,32.8,20.4,88,55,26,30.03,29.67,8,3,8,0.08
2013-9-19,59.0,49.5,45.0,28.3,25.1,21.5,48,39,26,30.09,30.03,8,2,8,0.28
2013-9-20,74.3,56.7,38.7,28.0,17.1,6.1,50,26,8,30.03,29.79,12,4,12,0.00
2013-9-21,78.1,61.6,47.1,17.0,8.3,1.4,19,12,8,29.79,29.62,13,3,13,0.00
2013-9-22,64.4,54.1,43.7,40.5,27.4,11.3,78,38,17,29.73,29.65,10,3,10,0.04
2013-9-23,60.4,51.6,43.3,38.3,22.2,9.0,81,34,14,29.91,29.73,15,4,15,0.00
2013-9-24,52.2,44.3,38.7,40.8,29.0,19.7,90,58,37,29.91,29.70,10,2,10,0.63
2013-9-25,46.0,41.2,36.3,41.9,37.3,32.0,96,86,73,29.76,29.67,8,2,8,0.83
2013-9-26,39.7,36.3,33.3,38.4,35.3,31.6,98,96,88,29.97,29.76,10,2,10,0.67
2013-9-27,49.6,40.4,30.9,33.2,23.0,17.1,96,54,30,29.97,29.88,9,4,9,0.00
2013-9-28,57.9,50.1,43.0,27.0,23.0,19.7,40,35,27,29.88,29.73,18,7,18,0.00
2013-9-29,59.7,50.8,43.0,32.4,22.8,18.2,65,34,25,29.73,29.59,17,6,18,0.00
2013-9-30,53.4,47.5,39.9,40.1,21.3,8.6,77,37,18,29.85,29.53,15,5,15,0.08
2013-10-1,46.6,43.0,40.3,22.8,20.4,15.1,47,40,31,29.97,29.85,10,3,10,0.00
2013-10-2,50.4,41.6,33.3,28.6,17.9,12.3,66,39,27,30.06,29.88,8,2,9,0.00
2013-10-3,39.0,33.7,32.4,33.1,31.0,28.1,98,90,66,30.24,29.88,8,2,8,0.08
2013-10-4,41.2,34.8,29.5,30.9,25.5,16.5,94,71,42,30.32,30.24,9,1,9,0.31
2013-10-5,57.2,43.1,29.7,20.9,13.2,3.7,58,33,12,30.27,30.18,10,4,10,0.00
2013-10-6,64.2,47.6,35.4,27.8,21.1,13.9,54,36,18,30.18,29.94,10,2,10,0.00
2013-10-7,66.2,50.8,38.7,25.2,15.8,7.1,40,26,12,29.94,29.70,11,3,11,0.00
2013-10-8,52.2,42.9,33.8,20.6,16.1,10.7,48,34,21,29.85,29.73,15,3,15,0.00
2013-10-9,50.0,38.8,30.9,25.5,21.1,14.9,64,50,32,29.94,29.76,8,2,9,0.00
2013-10-10,53.4,41.6,32.9,26.6,21.1,9.7,75,47,18,29.82,29.67,9,3,9,0.00
2013-10-11,48.7,40.4,32.7,19.2,14.9,9.0,47,36,22,29.94,29.82,10,2,10,0.00
2013-10-12,45.3,36.4,29.1,21.9,16.2,11.6,59,44,33,30.00,29.88,8,2,8,0.00
2013-10-13,46.6,38.1,31.1,27.7,22.8,19.0,76,55,38,30.12,30.00,8,2,8,0.00
2013-10-14,41.2,36.5,30.6,34.6,24.1,15.3,91,62,39,30.27,30.12,8,2,8,0.04
2013-10-15,49.1,36.5,27.1,25.3,17.3,8.7,77,48,27,30.27,30.06,9,3,9,0.00
2013-10-16,40.3,34.5,29.8,31.2,18.2,9.0,85,54,33,30.09,29.97,10,2,10,0.00
2013-10-17,41.9,35.5,32.2,31.7,27.6,21.3,88,74,44,30.18,30.06,13,1,13,0.00
2013-10-18,52.0,39.2,27.0,24.5,18.0,11.2,74,46,21,30.15,30.00,8,2,8,0.00
2013-10-19,56.5,47.5,35.8,19.4,12.7,5.4,40,26,15,30.00,29.85,10,2,10,0.00
2013-10-20,53.6,44.0,36.7,31.5,22.7,15.9,75,45,26,30.03,29.91,8,2,9,0.00
2013-10-21,56.7,46.9,37.6,26.4,23.5,19.7,59,41,27,30.09,30.03,8,2,8,0.00
2013-10-22,62.1,48.4,37.2,26.2,18.8,6.0,57,34,11,30.09,30.03,9,3,10,0.00
2013-10-23,56.5,44.7,35.2,25.7,19.5,10.2,53,37,25,30.09,30.03,8,3,8,0.00
2013-10-24,54.9,42.8,34.0,28.9,24.9,20.4,78,51,29,30.09,30.00,8,3,8,0.00
2013-10-25,58.1,45.8,36.1,25.4,18.8,12.7,49,35,17,30.18,30.00,9,2,9,0.00
2013-10-26,59.5,46.2,34.3,21.4,12.4,3.5,45,27,12,30.18,30.00,9,2,9,0.00
2013-10-27,51.4,39.8,26.1,22.6,13.1,0.9,85,37,17,30.06,29.79,14,4,14,0.00
2013-10-28,25.9,18.5,16.0,22.0,10.3,4.4,85,70,55,30.09,30.00,8,2,8,0.00
2013-10-29,29.7,21.7,13.6,23.0,11.2,5.4,85,65,44,30.00,29.79,6,1,6,0.00
2013-10-30,43.7,34.0,25.3,21.3,16.5,11.7,80,51,31,29.88,29.79,8,2,9,0.28
2013-10-31,44.8,38.9,36.1,21.0,16.4,11.9,49,40,34,29.97,29.82,17,2,17,0.08
2013-11-1,49.6,40.1,34.0,20.0,17.4,14.6,52,40,27,30.09,29.97,10,2,10,0.00
2013-11-2,55.0,39.4,31.3,30.7,19.6,13.5,81,47,20,30.03,29.56,19,3,19,0.00
2013-11-3,37.4,32.1,25.2,21.7,10.8,5.4,75,42,31,29.85,29.65,10,2,10,0.00
2013-11-4,31.1,25.8,21.7,19.9,14.2,5.3,84,63,42,29.97,29.82,6,1,6,0.00
2013-11-5,37.8,29.6,23.0,14.1,5.2,-2.1,53,36,19,30.00,29.94,10,3,10,0.00
2013-11-6,39.9,35.1,30.9,29.0,15.7,9.5,83,46,31,30.18,29.94,10,2,10,0.00
2013-11-7,52.5,40.9,32.5,29.8,19.3,12.6,77,42,29,30.18,29.65,16,3,16,0.04
2013-11-8,41.0,37.4,34.2,25.1,16.1,12.4,64,42,35,29.97,29.73,20,3,20,0.00
2013-11-9,41.5,34.9,28.0,15.5,12.0,9.6,48,39,29,30.03,29.97,6,2,8,0.00
2013-11-10,46.6,35.8,28.9,23.0,18.7,13.7,69,50,38,30.03,29.94,6,0,6,0.00
2013-11-11,44.1,33.5,28.2,32.4,24.9,20.1,86,71,46,30.24,30.03,6,1,6,0.00
2013-11-12,52.3,39.6,30.0,29.8,23.2,15.4,85,55,26,30.21,30.09,8,2,8,0.00
2013-11-13,50.5,44.8,39.0,23.5,17.4,11.3,44,33,29,30.18,30.09,10,2,10,0.00
2013-11-14,43.0,37.9,32.5,13.7,11.0,6.1,41,33,28,30.09,29.70,10,3,10,0.00
2013-11-15,40.5,36.2,33.3,12.5,8.5,6.1,40,31,28,29.70,29.38,13,3,13,0.00
2013-11-16,41.2,33.8,29.1,18.7,11.3,5.1,55,39,29,29.53,29.23,13,4,14,0.00
2013-11-17,36.5,32.6,27.9,11.9,6.5,2.2,43,33,30,29.85,29.53,13,4,13,0.00
2013-11-18,46.6,43.5,34.5,7.3,0.1,-1.6,31,16,14,29.85,29.70,9,5,9,0.00
2013-11-19,54.3,46.7,33.3,21.0,11.8,-1.6,41,25,15,29.70,29.59,17,6,17,0.00
2013-11-20,32.7,10.5,1.2,14.6,0.4,-7.2,67,63,42,30.09,29.65,8,2,8,0.00
2013-11-21,18.3,8.1,0.0,4.9,-3.5,-8.4,67,59,45,30.32,30.06,8,1,8,0.00
2013-11-22,26.1,17.0,9.5,5.0,-0.7,-4.2,53,45,34,30.38,30.29,6,2,6,0.00
2013-11-23,29.5,19.6,12.0,7.7,2.1,-3.5,53,46,34,30.32,30.06,8,1,8,0.00
2013-11-24,35.1,26.7,17.8,13.9,7.7,1.4,54,44,35,30.09,30.00,6,1,8,0.00
2013-11-25,39.6,31.8,24.1,15.3,11.0,6.8,53,42,31,30.21,30.09,6,1,6,0.00
2013-11-26,39.7,32.0,24.4,16.8,13.5,9.4,59,46,39,30.21,30.00,5,1,5,0.00
2013-11-27,45.5,36.7,30.4,16.7,13.0,9.7,43,37,28,30.00,29.94,8,2,8,0.00
2013-11-28,40.1,31.9,24.4,16.4,11.4,8.4,55,43,33,30.00,29.94,9,2,9,0.00
2013-11-29,43.7,35.9,26.6,15.6,10.8,6.8,45,35,29,30.03,29.94,6,1,8,0.00
2013-11-30,45.3,40.2,36.3,20.7,17.8,12.5,51,40,31,30.06,30.00,8,1,8,0.00
2013-12-1,44.2,42.1,40.3,24.3,18.9,15.2,50,39,32,30.00,29.62,17,6,17,0.00
2013-12-2,43.9,27.2,5.2,34.0,16.4,-5.3,85,65,42,29.79,29.50,14,4,14,0.04
2013-12-3,5.4,0.9,-5.8,-5.2,-9.4,-15.8,61,61,61,29.97,29.79,9,3,9,0.00
2013-12-4,2.5,-3.4,-12.8,-7.9,-13.4,-22.4,61,61,61,30.00,29.94,11,2,11,0.00
2013-12-5,-0.6,-8.6,-15.2,-10.8,-18.4,-24.6,61,61,61,30.03,29.91,8,2,8,0.00
2013-12-6,-9.6,-15.4,-21.1,-19.4,-24.8,-30.3,61,61,61,30.09,30.00,8,1,8,0.00
2013-12-7,-9.4,-18.1,-24.7,-19.2,-27.5,-33.7,61,61,61,30.00,29.76,6,1,6,0.00
2013-12-8,2.7,-6.8,-17.7,-7.7,-16.7,-27.0,61,61,61,30.00,29.79,8,1,8,0.00
2013-12-9,20.5,10.8,-9.4,4.6,-3.4,-19.2,61,53,39,30.00,29.91,10,1,10,0.00
2013-12-10,23.9,20.6,16.5,8.2,3.9,2.0,61,48,42,30.09,29.85,8,2,8,0.00
2013-12-11,27.9,23.5,17.8,7.1,4.1,0.1,53,43,35,30.12,30.06,8,2,8,0.00
2013-12-12,33.6,27.1,23.4,12.3,8.8,6.2,54,45,40,30.12,29.85,8,1,8,0.00
2013-12-13,37.8,32.3,26.6,15.9,12.7,7.1,53,44,39,30.12,29.85,9,2,9,0.00
2013-12-14,42.8,38.0,28.6,17.4,14.2,11.6,54,37,31,30.12,30.00,14,3,14,0.04
2013-12-15,50.4,41.4,32.9,15.6,11.2,7.1,36,29,19,30.06,29.91,15,3,15,0.00
2013-12-16,45.3,37.8,29.7,14.0,10.7,5.9,42,32,25,30.12,29.97,12,2,12,0.00
2013-12-17,53.2,44.6,34.0,13.2,6.1,-0.2,31,21,14,30.12,29.79,14,4,17,0.00
2013-12-18,47.7,38.2,11.1,16.4,4.7,-2.9,70,28,14,29.79,29.67,11,2,11,0.00
2013-12-19,11.1,5.2,1.9,1.7,-3.9,-7.1,65,65,65,29.94,29.79,9,1,9,0.00
2013-12-20,23.9,13.9,2.5,8.7,0.8,-6.6,70,56,38,29.79,29.44,6,1,6,0.00
2013-12-21,28.6,25.2,16.7,16.5,9.3,7.1,75,51,42,29.82,29.47,9,1,9,0.00
2013-12-22,28.0,21.7,16.0,16.1,9.0,2.1,75,58,49,30.03,29.79,8,1,8,0.00
2013-12-23,44.2,33.8,22.8,29.1,18.3,8.1,84,53,37,30.03,29.76,17,2,17,0.12
2013-12-24,34.5,31.3,26.8,11.7,6.7,1.9,41,35,30,30.24,29.88,17,3,17,0.00
2013-12-25,41.5,28.9,18.7,5.3,0.5,-4.7,36,30,16,30.24,30.06,12,2,13,0.00
2013-12-26,48.7,41.6,35.2,18.8,14.1,-1.4,44,32,19,30.15,30.06,11,1,13,0.00
2013-12-27,48.6,42.2,34.5,17.3,10.5,-0.6,40,28,14,30.06,29.76,13,3,13,0.00
2013-12-28,45.1,21.1,12.2,11.0,2.6,-3.3,64,47,15,30.12,29.76,11,2,11,0.00
2013-12-29,34.7,29.0,17.1,13.7,7.5,2.6,60,40,30,30.12,29.88,13,3,13,0.00
2013-12-30,42.1,37.0,32.4,18.9,13.3,10.7,45,38,29,30.03,29.82,10,2,10,0.00
2013-12-31,42.1,38.4,34.7,23.2,17.5,13.0,52,42,38,29.94,29.79,11,2,12,0.00
2014-1-1,37.4,33.2,28.8,13.0,9.0,3.9,40,36,30,30.12,29.94,10,3,10,0.00
2014-1-2,46.0,38.1,28.8,16.4,9.4,3.1,36,30,27,30.06,29.65,15,4,17,0.00